Kinniconick, Kentucky
Current Conditions -  °F | °C
As of 8:55 PM on Monday 20 Oct 2014 (Local Time) from KFGX Reporting Station
Broken Clouds Broken Clouds  
Wind Chill: 54°   Ceiling: 10000
Heat Index: 54°   Visibility: 10mi
Dew Point: 47°   Wind: 8mph
Humidity: 76%   Direction: 210°SSW
Pressure: 29.92"   Gusts: NA
Location:  38.4929°N, 83.3898°W
Report Text: KFGX 210055Z AUTO 21007KT 10SM SCT080 BKN100 12/08 A2992 RMK AO2 T01240082
Loading
Personal Weather Stations






























Interactive Weather Map
Tropical Storm Tracking
New forecast layout! Learn more

10-Day Weather Forecast

Advertisements
Track Severe Weather on mobile